Mendon, Vermont
Current Conditions -  °F | °C
As of 8:55 PM on Wednesday 26 Nov 2014 (Local Time) from KRUT Reporting Station
Overcast Overcast  
Wind Chill: 17°   Ceiling: 500
Heat Index: 27°   Visibility: 2.5mi
Dew Point: 25°   Wind: 9mph
Humidity: 93%   Direction: 330°NNW
Pressure: 29.91"   Gusts: NA
Location:  43.6369°N, 72.9375°W
Report Text: KRUT 270155Z 33008KT 2 1/2SM OVC005 M03/M04 A2991 RMK AO1
Loading
Personal Weather Stations






























Interactive Weather Map New forecast layout! Learn more

10-Day Weather Forecast

Advertisements
Track Severe Weather on mobile